createdAt,value
2018-07-26T00:04:11.481Z,25.39
2018-07-26T00:09:10.286Z,25.42
2018-07-26T00:14:07.822Z,25.34
2018-07-26T00:19:05.350Z,25.42
2018-07-26T00:24:02.830Z,25.38
2018-07-26T00:29:04.713Z,25.45
2018-07-26T00:34:04.781Z,25.30
2018-07-26T00:39:05.990Z,25.34
2018-07-26T00:44:04.724Z,25.32
2018-07-26T00:49:02.259Z,25.23
2018-07-26T00:53:59.796Z,25.21
2018-07-26T00:58:58.447Z,25.13
2018-07-26T01:03:55.937Z,24.97
2018-07-26T01:08:53.486Z,25.15
2018-07-26T01:13:50.961Z,25.12
2018-07-26T01:18:48.465Z,25.02
2018-07-26T01:23:45.971Z,25.00
2018-07-26T01:28:43.453Z,24.85
2018-07-26T01:33:40.975Z,24.87
2018-07-26T01:38:38.478Z,24.78
2018-07-26T01:43:48.414Z,24.70
2018-07-26T01:48:45.905Z,24.55
2018-07-26T01:53:44.190Z,24.55
2018-07-26T01:58:41.689Z,24.35
2018-07-26T02:03:39.652Z,24.29
2018-07-26T02:08:37.220Z,24.26
2018-07-26T02:13:34.703Z,24.15
2018-07-26T02:18:32.234Z,24.10
2018-07-26T02:23:29.751Z,24.11
2018-07-26T02:28:27.229Z,23.95
2018-07-26T02:33:24.706Z,23.86
2018-07-26T02:38:22.185Z,23.80
2018-07-26T02:43:19.686Z,23.72
2018-07-26T02:48:17.170Z,23.74
2018-07-26T02:53:14.782Z,23.61
2018-07-26T02:58:12.323Z,23.47
2018-07-26T03:03:09.811Z,23.58
2018-07-26T03:08:07.317Z,23.50
2018-07-26T03:13:05.003Z,23.48
2018-07-26T03:18:02.540Z,23.34
2018-07-26T03:23:00.064Z,23.37
2018-07-26T03:27:57.541Z,23.22
2018-07-26T03:32:55.039Z,23.22
2018-07-26T03:37:52.550Z,23.17
2018-07-26T03:42:50.103Z,23.09
2018-07-26T03:47:47.627Z,22.96
2018-07-26T03:52:45.223Z,23.15
2018-07-26T03:57:42.768Z,22.94
2018-07-26T04:02:40.256Z,23.07
2018-07-26T04:07:37.758Z,22.94
2018-07-26T04:12:35.282Z,23.03
2018-07-26T04:17:32.790Z,23.10
2018-07-26T04:22:30.290Z,22.94
2018-07-26T04:27:27.822Z,22.58
2018-07-26T04:32:25.330Z,22.92
2018-07-26T04:37:22.874Z,23.06
2018-07-26T04:42:20.379Z,23.48
2018-07-26T04:47:17.915Z,23.48
2018-07-26T04:52:15.414Z,23.38
2018-07-26T04:57:12.962Z,23.42
2018-07-26T05:02:10.782Z,23.38
2018-07-26T05:07:08.315Z,23.66
2018-07-26T05:12:05.883Z,23.71
2018-07-26T05:17:03.406Z,23.59
2018-07-26T05:22:00.895Z,23.89
2018-07-26T05:26:58.391Z,23.80
2018-07-26T05:31:55.941Z,24.12
2018-07-26T05:36:53.505Z,24.28
2018-07-26T05:41:51.010Z,24.42
2018-07-26T05:46:48.489Z,24.60
2018-07-26T05:51:46.019Z,24.61
2018-07-26T05:56:43.538Z,24.70
2018-07-26T06:01:41.053Z,24.74
2018-07-26T06:06:38.573Z,24.88
2018-07-26T06:11:36.077Z,25.24
2018-07-26T06:16:33.554Z,25.54
2018-07-26T06:21:31.073Z,26.03
2018-07-26T06:26:28.624Z,26.17
2018-07-26T06:31:26.180Z,26.45
2018-07-26T06:36:23.720Z,26.74
2018-07-26T06:41:21.405Z,27.56
2018-07-26T06:46:18.938Z,27.58
2018-07-26T06:51:16.413Z,27.19
2018-07-26T06:56:13.911Z,27.94
2018-07-26T07:01:11.477Z,28.72
2018-07-26T07:06:09.129Z,28.99
2018-07-26T07:11:06.624Z,28.78
2018-07-26T07:16:04.170Z,28.46
2018-07-26T07:21:01.693Z,28.86
2018-07-26T07:25:59.291Z,28.82
2018-07-26T07:30:56.779Z,29.34
2018-07-26T07:35:54.281Z,29.02
2018-07-26T07:40:51.819Z,29.29
2018-07-26T07:45:49.308Z,29.15
2018-07-26T07:50:46.831Z,29.22
2018-07-26T07:55:44.463Z,29.84
2018-07-26T08:00:41.959Z,29.72
2018-07-26T08:05:39.541Z,30.38
2018-07-26T08:10:37.074Z,29.86
2018-07-26T08:15:34.598Z,29.63
2018-07-26T08:20:32.091Z,30.02
2018-07-26T08:25:29.619Z,30.73
2018-07-26T08:30:27.161Z,30.47
2018-07-26T08:35:24.653Z,30.44
2018-07-26T08:40:22.150Z,30.90
2018-07-26T08:45:19.671Z,31.44
2018-07-26T08:50:17.187Z,31.95
2018-07-26T08:55:14.738Z,32.14
2018-07-26T09:00:15.662Z,32.40
2018-07-26T09:05:13.238Z,33.00
2018-07-26T09:10:10.753Z,32.65
2018-07-26T09:15:08.378Z,32.82
2018-07-26T09:20:06.101Z,32.60
2018-07-26T09:25:03.721Z,33.79
2018-07-26T09:30:01.227Z,34.39
2018-07-26T09:34:58.723Z,33.29
2018-07-26T09:39:56.259Z,33.94
2018-07-26T09:44:53.786Z,33.94
2018-07-26T09:49:51.377Z,34.70
2018-07-26T09:54:48.971Z,34.94
2018-07-26T09:59:47.479Z,34.86
2018-07-26T10:04:45.281Z,35.07
2018-07-26T10:09:42.771Z,35.00
2018-07-26T10:14:40.290Z,35.47
2018-07-26T10:19:37.830Z,35.11
2018-07-26T10:24:35.377Z,34.80
2018-07-26T10:29:35.532Z,34.76
2018-07-26T10:34:33.184Z,34.89
2018-07-26T10:39:30.668Z,35.30
2018-07-26T10:44:28.181Z,35.07
2018-07-26T10:49:25.725Z,34.97
2018-07-26T10:54:23.205Z,35.24
2018-07-26T10:59:22.975Z,34.84
2018-07-26T11:04:20.533Z,34.07
2018-07-26T11:09:18.051Z,34.00
2018-07-26T11:14:15.535Z,33.35
2018-07-26T11:19:13.055Z,35.14
2018-07-26T11:24:10.601Z,35.19
2018-07-26T11:29:19.527Z,35.68
2018-07-26T11:34:17.123Z,35.89
2018-07-26T11:39:14.638Z,35.40
2018-07-26T11:44:12.231Z,35.56
2018-07-26T11:49:09.758Z,35.65
2018-07-26T11:54:07.670Z,35.22
2018-07-26T11:59:08.773Z,35.84
2018-07-26T12:04:06.715Z,36.34
2018-07-26T12:09:07.400Z,35.95
2018-07-26T12:14:08.880Z,35.85
2018-07-26T12:19:06.398Z,35.50
2018-07-26T12:24:03.918Z,35.54
2018-07-26T12:29:03.055Z,35.89
2018-07-26T12:34:00.679Z,35.38
2018-07-26T12:38:58.220Z,36.29
2018-07-26T12:43:55.739Z,34.64
2018-07-26T12:48:53.262Z,35.35
2018-07-26T12:53:50.803Z,35.51
2018-07-26T12:58:48.325Z,35.74
2018-07-26T13:03:45.855Z,35.54
2018-07-26T13:08:43.366Z,35.55
2018-07-26T13:13:45.079Z,36.12
2018-07-26T13:18:45.012Z,36.38
2018-07-26T13:23:45.773Z,36.63
2018-07-26T13:28:43.382Z,35.46
2018-07-26T13:33:40.923Z,36.25
2018-07-26T13:38:38.474Z,36.39
2018-07-26T13:43:35.973Z,36.36
2018-07-26T13:48:34.321Z,36.29
2018-07-26T13:53:31.839Z,35.86
2018-07-26T13:58:31.292Z,36.72
2018-07-26T14:03:33.768Z,35.90
2018-07-26T14:08:31.384Z,35.93
2018-07-26T14:13:28.941Z,36.33
2018-07-26T14:18:26.487Z,36.28
2018-07-26T14:23:29.678Z,36.12
2018-07-26T14:28:27.184Z,35.73
2018-07-26T14:33:24.698Z,36.21
2018-07-26T14:38:22.292Z,36.26
2018-07-26T14:43:19.817Z,36.56
2018-07-26T14:48:19.917Z,36.45
2018-07-26T14:53:22.077Z,36.66
2018-07-26T14:58:21.829Z,36.53
2018-07-26T15:03:19.443Z,35.89
2018-07-26T15:08:16.979Z,35.99
2018-07-26T15:13:14.608Z,36.38
2018-07-26T15:18:12.131Z,36.41
2018-07-26T15:23:09.657Z,35.99
2018-07-26T15:28:07.201Z,36.30
2018-07-26T15:33:04.742Z,36.47
2018-07-26T15:38:02.257Z,35.91
2018-07-26T15:42:59.786Z,36.23
2018-07-26T15:47:57.291Z,36.70
2018-07-26T15:52:54.822Z,36.35
2018-07-26T15:57:52.457Z,36.24
2018-07-26T16:02:50.001Z,36.31
2018-07-26T16:07:47.551Z,36.46
2018-07-26T16:12:45.135Z,36.09
2018-07-26T16:17:42.807Z,36.03
2018-07-26T16:22:40.317Z,35.63
2018-07-26T16:27:38.065Z,36.07
2018-07-26T16:32:35.722Z,36.86
2018-07-26T16:37:33.287Z,36.82
2018-07-26T16:42:30.795Z,36.66
2018-07-26T16:47:28.287Z,36.95
2018-07-26T16:52:25.831Z,36.93
2018-07-26T16:57:23.385Z,37.14
2018-07-26T17:02:20.944Z,37.35
2018-07-26T17:07:18.489Z,37.93
2018-07-26T17:12:16.060Z,37.57
2018-07-26T17:17:13.661Z,37.17
2018-07-26T17:22:11.394Z,37.16
2018-07-26T17:27:08.946Z,37.01
2018-07-26T17:32:06.518Z,37.26
2018-07-26T17:37:04.083Z,37.67
2018-07-26T17:42:01.699Z,38.37
2018-07-26T17:46:59.236Z,38.52
2018-07-26T17:51:56.765Z,37.80
2018-07-26T17:56:56.235Z,37.53
2018-07-26T18:01:53.883Z,37.18
2018-07-26T18:06:51.403Z,37.56
2018-07-26T18:11:48.946Z,37.10
2018-07-26T18:16:46.522Z,37.00
2018-07-26T18:21:44.064Z,36.84
2018-07-26T18:26:41.640Z,36.51
2018-07-26T18:31:39.285Z,36.00
2018-07-26T18:36:36.729Z,35.40
2018-07-26T18:41:34.427Z,35.17
2018-07-26T18:46:32.192Z,35.27
2018-07-26T18:51:29.825Z,34.49
2018-07-26T18:56:27.340Z,34.00
2018-07-26T19:01:24.862Z,33.14
2018-07-26T19:06:22.430Z,32.55
2018-07-26T19:11:19.954Z,32.07
2018-07-26T19:16:17.477Z,31.35
2018-07-26T19:21:14.977Z,30.53
2018-07-26T19:26:12.476Z,29.98
2018-07-26T19:31:09.974Z,29.45
2018-07-26T19:36:07.537Z,29.17
2018-07-26T19:41:05.103Z,28.96
2018-07-26T19:46:02.638Z,28.49
2018-07-26T19:51:00.169Z,28.36
2018-07-26T19:55:57.657Z,28.31
2018-07-26T20:00:55.154Z,28.00
2018-07-26T20:05:52.663Z,28.22
2018-07-26T20:10:50.148Z,28.16
2018-07-26T20:15:47.652Z,27.64
2018-07-26T20:20:45.141Z,27.50
2018-07-26T20:25:45.391Z,27.45
2018-07-26T20:30:42.897Z,27.46
2018-07-26T20:35:40.400Z,27.52
2018-07-26T20:40:37.878Z,27.40
2018-07-26T20:45:35.873Z,27.52
2018-07-26T20:50:33.499Z,27.43
2018-07-26T20:55:31.066Z,27.48
2018-07-26T21:00:28.576Z,27.56
2018-07-26T21:05:26.113Z,27.49
2018-07-26T21:10:23.666Z,27.55
2018-07-26T21:15:21.157Z,27.72
2018-07-26T21:20:18.654Z,27.75
2018-07-26T21:25:16.126Z,27.79
2018-07-26T21:30:13.602Z,27.92
2018-07-26T21:35:11.146Z,28.07
2018-07-26T21:40:08.710Z,28.17
2018-07-26T21:45:06.639Z,28.21
2018-07-26T21:50:04.258Z,28.17
2018-07-26T21:55:01.738Z,28.10
2018-07-26T22:00:00.250Z,27.91
2018-07-26T22:04:57.762Z,27.82
2018-07-26T22:09:55.251Z,27.83
2018-07-26T22:14:52.715Z,27.69
2018-07-26T22:19:50.185Z,27.53
2018-07-26T22:24:47.656Z,27.10
2018-07-26T22:29:46.186Z,26.93
2018-07-26T22:34:43.621Z,26.62
2018-07-26T22:39:41.062Z,26.39
2018-07-26T22:44:38.510Z,25.99
2018-07-26T22:49:35.964Z,25.74
2018-07-26T22:54:33.426Z,25.91
2018-07-26T22:59:37.719Z,26.04
2018-07-26T23:04:35.179Z,25.84
2018-07-26T23:09:32.641Z,25.70
2018-07-26T23:14:30.150Z,25.49
2018-07-26T23:19:27.620Z,25.42
2018-07-26T23:24:25.069Z,25.14
2018-07-26T23:29:30.325Z,24.98
2018-07-26T23:34:27.911Z,24.88
2018-07-26T23:39:25.363Z,24.95
2018-07-26T23:44:22.815Z,24.66
2018-07-26T23:49:20.275Z,24.83
2018-07-26T23:54:17.721Z,24.84
2018-07-26T23:59:19.919Z,25.05
